createdAt,value
2018-11-23T00:00:56.041Z,25.87
2018-11-23T00:03:29.761Z,26.07
2018-11-23T00:06:04.599Z,26.70
2018-11-23T00:08:38.313Z,25.17
2018-11-23T00:11:12.176Z,26.83
2018-11-23T00:13:45.872Z,26.53
2018-11-23T00:16:26.644Z,28.40
2018-11-23T00:19:00.288Z,28.07
2018-11-23T00:21:38.319Z,26.67
2018-11-23T00:24:11.987Z,27.00
2018-11-23T00:26:50.953Z,24.60
2018-11-23T00:29:24.640Z,26.60
2018-11-23T00:32:01.849Z,27.80
2018-11-23T00:34:35.502Z,28.93
2018-11-23T00:37:17.340Z,29.43
2018-11-23T00:39:51.036Z,29.03
2018-11-23T00:42:24.827Z,27.23
2018-11-23T00:44:58.553Z,30.33
2018-11-23T00:47:33.382Z,26.87
2018-11-23T00:50:08.040Z,28.37
2018-11-23T00:52:42.187Z,28.10
2018-11-23T00:55:17.426Z,31.07
2018-11-23T00:57:55.979Z,29.30
2018-11-23T01:00:31.468Z,29.60
2018-11-23T01:03:05.918Z,28.70
2018-11-23T01:05:39.691Z,30.83
2018-11-23T01:08:17.957Z,29.83
2018-11-23T01:10:51.645Z,31.63
2018-11-23T01:13:28.961Z,31.83
2018-11-23T01:16:02.652Z,29.17
2018-11-23T01:18:37.586Z,28.00
2018-11-23T01:21:11.313Z,29.90
2018-11-23T01:23:52.557Z,30.70
2018-11-23T01:26:26.325Z,28.20
2018-11-23T01:29:05.141Z,27.07
2018-11-23T01:31:38.821Z,26.53
2018-11-23T01:34:16.219Z,30.83
2018-11-23T01:36:49.923Z,28.97
2018-11-23T01:39:41.442Z,29.13
2018-11-23T01:42:15.131Z,26.83
2018-11-23T01:44:54.018Z,28.63
2018-11-23T01:47:27.352Z,30.17
2018-11-23T01:50:02.168Z,29.67
2018-11-23T01:52:35.851Z,30.80
2018-11-23T01:55:12.103Z,31.00
2018-11-23T01:57:46.135Z,29.50
2018-11-23T02:00:22.603Z,32.00
2018-11-23T02:02:57.086Z,30.60
2018-11-23T02:05:30.834Z,29.23
2018-11-23T02:08:04.556Z,30.67
2018-11-23T02:10:41.305Z,28.33
2018-11-23T02:13:15.000Z,28.00
2018-11-23T02:15:52.452Z,25.63
2018-11-23T02:18:26.143Z,25.93
2018-11-23T02:21:01.911Z,24.93
2018-11-23T02:23:35.579Z,27.70
2018-11-23T02:26:09.387Z,28.43
2018-11-23T02:28:43.092Z,25.70
2018-11-23T02:31:28.030Z,24.93
2018-11-23T02:34:01.686Z,25.13
2018-11-23T02:36:36.543Z,26.30
2018-11-23T02:39:10.231Z,25.40
2018-11-23T02:41:45.105Z,29.03
2018-11-23T02:44:18.791Z,28.17
2018-11-23T02:46:53.688Z,29.50
2018-11-23T02:49:27.335Z,29.17
2018-11-23T02:52:01.279Z,28.30
2018-11-23T02:54:35.012Z,27.77
2018-11-23T02:57:13.591Z,30.50
2018-11-23T02:59:47.271Z,28.97
2018-11-23T03:02:20.964Z,28.17
2018-11-23T03:04:54.743Z,32.00
2018-11-23T03:07:29.590Z,28.63
2018-11-23T03:10:03.678Z,28.97
2018-11-23T03:12:37.871Z,27.17
2018-11-23T03:15:13.582Z,24.40
2018-11-23T03:17:47.707Z,23.40
2018-11-23T03:20:22.393Z,23.33
2018-11-23T03:22:57.234Z,24.93
2018-11-23T03:25:30.926Z,25.27
2018-11-23T03:28:18.593Z,25.60
2018-11-23T03:30:52.257Z,25.53
2018-11-23T03:33:50.612Z,25.93
2018-11-23T03:36:24.937Z,25.30
2018-11-23T03:39:09.126Z,24.90
2018-11-23T03:41:42.783Z,27.53
2018-11-23T03:44:17.590Z,26.83
2018-11-23T03:46:51.292Z,25.83
2018-11-23T03:52:33.148Z,26.50
2018-11-23T03:55:06.960Z,26.97
2018-11-23T03:57:43.961Z,28.37
2018-11-23T04:00:19.261Z,27.00
2018-11-23T04:02:57.086Z,27.70
2018-11-23T04:05:30.799Z,28.20
2018-11-23T04:08:05.517Z,27.47
2018-11-23T04:10:39.188Z,29.27
2018-11-23T04:13:19.281Z,29.33
2018-11-23T04:15:52.985Z,29.27
2018-11-23T04:18:31.796Z,29.10
2018-11-23T04:21:05.844Z,28.57
2018-11-23T04:23:43.029Z,32.20
2018-11-23T04:26:16.766Z,29.53
2018-11-23T04:28:55.215Z,29.97
2018-11-23T04:31:28.944Z,28.40
2018-11-23T04:34:07.130Z,25.13
2018-11-23T04:36:40.830Z,26.03
2018-11-23T04:39:18.841Z,20.67
2018-11-23T04:41:52.592Z,19.80
2018-11-23T04:44:29.978Z,22.47
2018-11-23T04:47:03.675Z,26.23
2018-11-23T04:49:41.641Z,23.17
2018-11-23T04:52:15.351Z,21.27
2018-11-23T04:54:53.694Z,25.90
2018-11-23T04:57:27.424Z,24.73
2018-11-23T05:00:08.277Z,19.80
2018-11-23T05:02:42.458Z,21.33
2018-11-23T05:05:16.328Z,20.50
2018-11-23T05:07:50.081Z,20.97
2018-11-23T05:10:27.759Z,23.20
2018-11-23T05:13:01.517Z,23.90
2018-11-23T05:15:38.325Z,22.90
2018-11-23T05:18:12.077Z,22.43
2018-11-23T05:20:51.808Z,23.60
2018-11-23T05:23:25.573Z,23.20
2018-11-23T05:26:03.309Z,21.77
2018-11-23T05:28:37.014Z,24.93
2018-11-23T05:31:10.803Z,24.90
2018-11-23T05:33:44.564Z,22.97
2018-11-23T05:36:19.747Z,27.10
2018-11-23T05:38:53.434Z,24.50
2018-11-23T05:41:30.511Z,25.57
2018-11-23T05:44:04.297Z,21.83
2018-11-23T05:46:50.352Z,23.23
2018-11-23T05:49:24.052Z,22.53
2018-11-23T05:52:18.362Z,20.13
2018-11-23T05:54:52.055Z,19.30
2018-11-23T05:57:30.616Z,22.43
2018-11-23T06:00:05.720Z,22.13
2018-11-23T06:02:47.282Z,20.63
2018-11-23T06:05:21.061Z,22.30
2018-11-23T06:08:00.835Z,20.90
2018-11-23T06:10:34.563Z,23.67
2018-11-23T06:13:13.968Z,23.80
2018-11-23T06:15:47.658Z,21.63
2018-11-23T06:18:38.461Z,23.17
2018-11-23T06:21:11.803Z,22.93
2018-11-23T06:24:04.079Z,23.77
2018-11-23T06:26:37.880Z,23.60
2018-11-23T06:29:22.244Z,24.97
2018-11-23T06:31:57.040Z,28.13
2018-11-23T06:34:34.815Z,26.70
2018-11-23T06:37:08.550Z,27.10
2018-11-23T06:39:42.491Z,25.77
2018-11-23T06:42:16.240Z,24.47
2018-11-23T06:44:56.106Z,22.47
2018-11-23T06:47:29.407Z,23.43
2018-11-23T06:50:03.587Z,24.77
2018-11-23T06:52:37.359Z,21.57
2018-11-23T06:55:22.326Z,22.80
2018-11-23T06:57:56.061Z,21.83
2018-11-23T07:00:31.293Z,23.40
2018-11-23T07:03:05.125Z,22.27
2018-11-23T07:05:42.601Z,23.60
2018-11-23T07:08:16.350Z,24.47
2018-11-23T07:10:59.586Z,25.33
2018-11-23T07:13:33.709Z,22.27
2018-11-23T07:16:12.953Z,26.23
2018-11-23T07:18:46.710Z,21.83
2018-11-23T07:21:24.557Z,22.83
2018-11-23T07:23:58.283Z,22.77
2018-11-23T07:26:32.270Z,23.53
2018-11-23T07:29:06.547Z,22.33
2018-11-23T07:31:44.060Z,23.07
2018-11-23T07:34:17.843Z,24.40
2018-11-23T07:37:01.832Z,20.97
2018-11-23T07:39:47.004Z,24.30
2018-11-23T07:42:25.382Z,22.00
2018-11-23T07:45:05.425Z,23.63
2018-11-23T07:47:39.078Z,23.83
2018-11-23T07:50:19.918Z,22.20
2018-11-23T07:52:53.219Z,20.50
2018-11-23T07:55:42.734Z,18.30
2018-11-23T07:58:16.391Z,19.33
2018-11-23T08:00:51.565Z,19.00
2018-11-23T08:03:25.289Z,19.63
2018-11-23T08:06:08.804Z,20.20
2018-11-23T08:08:42.574Z,22.87
2018-11-23T08:11:21.837Z,22.27
2018-11-23T08:13:55.526Z,21.17
2018-11-23T08:16:35.053Z,21.20
2018-11-23T08:19:08.733Z,23.07
2018-11-23T08:21:44.436Z,21.77
2018-11-23T08:24:18.125Z,23.50
2018-11-23T08:26:59.111Z,21.87
2018-11-23T08:29:32.792Z,22.60
2018-11-23T08:32:12.469Z,22.37
2018-11-23T08:34:46.143Z,21.40
2018-11-23T08:37:20.476Z,22.03
2018-11-23T08:39:54.176Z,22.67
2018-11-23T08:42:44.848Z,22.10
2018-11-23T08:45:20.465Z,22.40
2018-11-23T08:47:54.319Z,21.50
2018-11-23T08:50:29.206Z,21.27
2018-11-23T08:53:10.961Z,21.57
2018-11-23T08:55:44.647Z,20.93
2018-11-23T08:58:24.568Z,20.20
2018-11-23T09:00:58.301Z,19.97
2018-11-23T09:03:50.060Z,20.43
2018-11-23T09:06:23.717Z,19.57
2018-11-23T09:09:08.392Z,20.27
2018-11-23T09:11:42.074Z,20.33
2018-11-23T09:14:19.449Z,19.27
2018-11-23T09:16:53.206Z,19.17
2018-11-23T09:19:47.701Z,19.67
2018-11-23T09:22:23.485Z,19.30
2018-11-23T09:28:05.812Z,19.97
2018-11-23T09:30:39.524Z,20.13
2018-11-23T09:33:17.792Z,19.30
2018-11-23T09:35:51.415Z,18.23
2018-11-23T09:38:25.028Z,17.20
2018-11-23T09:40:58.661Z,18.63
2018-11-23T09:43:32.243Z,19.70
2018-11-23T09:46:06.444Z,21.37
2018-11-23T09:48:40.032Z,18.57
2018-11-23T09:51:13.689Z,18.37
2018-11-23T09:53:47.268Z,22.00
2018-11-23T09:56:21.093Z,20.63
2018-11-23T09:58:54.697Z,21.03
2018-11-23T10:01:28.380Z,19.27
2018-11-23T10:04:01.981Z,19.97
2018-11-23T10:06:35.578Z,17.87
2018-11-23T10:09:09.177Z,19.07
2018-11-23T10:11:42.777Z,19.93
2018-11-23T10:14:16.339Z,21.10
2018-11-23T10:16:49.980Z,19.77
2018-11-23T10:19:29.203Z,20.73
2018-11-23T10:22:03.422Z,20.40
2018-11-23T10:24:37.002Z,19.10
2018-11-23T10:27:10.595Z,21.00
2018-11-23T10:29:44.180Z,20.50
2018-11-23T10:32:17.818Z,20.77
2018-11-23T10:34:51.416Z,22.07
2018-11-23T10:37:25.059Z,21.73
2018-11-23T10:39:58.640Z,21.17
2018-11-23T10:42:32.246Z,18.03
2018-11-23T10:45:09.070Z,18.53
2018-11-23T10:47:42.741Z,16.93
2018-11-23T10:50:18.983Z,19.57
2018-11-23T10:52:52.968Z,18.83
2018-11-23T10:55:28.087Z,18.23
2018-11-23T10:58:01.726Z,18.23
2018-11-23T11:00:41.049Z,16.90
2018-11-23T11:03:34.152Z,15.53
2018-11-23T11:06:13.480Z,16.47
2018-11-23T11:08:47.058Z,15.57
2018-11-23T11:11:20.647Z,12.40
2018-11-23T11:13:54.280Z,12.43
2018-11-23T11:16:27.919Z,11.77
2018-11-23T11:19:01.590Z,11.87
2018-11-23T11:21:35.396Z,11.50
2018-11-23T11:24:08.999Z,12.87
2018-11-23T11:26:42.551Z,13.27
2018-11-23T11:29:16.143Z,13.30
2018-11-23T11:31:49.769Z,13.37
2018-11-23T11:34:23.394Z,12.73
2018-11-23T11:36:56.942Z,13.83
2018-11-23T11:39:30.562Z,14.10
2018-11-23T11:42:04.474Z,14.00
2018-11-23T11:44:38.083Z,14.63
2018-11-23T11:47:11.676Z,15.80
2018-11-23T11:49:45.248Z,16.43
2018-11-23T11:52:18.847Z,17.03
2018-11-23T11:54:52.453Z,17.93
2018-11-23T11:57:26.005Z,17.10
2018-11-23T11:59:59.588Z,17.27
2018-11-23T12:02:33.174Z,17.30
2018-11-23T12:05:07.549Z,18.07
2018-11-23T12:07:41.169Z,16.23
2018-11-23T12:10:16.897Z,18.40
2018-11-23T12:12:50.472Z,17.37
2018-11-23T12:15:24.096Z,17.00
2018-11-23T12:17:57.676Z,16.90
2018-11-23T12:20:31.258Z,16.93
2018-11-23T12:23:05.650Z,17.23
2018-11-23T12:25:39.244Z,17.53
2018-11-23T12:28:12.801Z,17.57
2018-11-23T12:30:46.422Z,17.87
2018-11-23T12:33:20.031Z,18.63
2018-11-23T12:35:53.685Z,19.10
2018-11-23T12:38:27.266Z,18.50
2018-11-23T12:41:00.896Z,18.87
2018-11-23T12:43:34.431Z,19.17
2018-11-23T12:46:08.011Z,18.40
2018-11-23T12:48:41.555Z,18.40
2018-11-23T12:51:15.152Z,18.87
2018-11-23T12:53:48.773Z,17.83
2018-11-23T12:56:22.364Z,18.53
2018-11-23T12:58:55.972Z,18.13
2018-11-23T13:01:29.605Z,17.63
2018-11-23T13:04:03.377Z,18.73
2018-11-23T13:06:36.961Z,19.37
2018-11-23T13:09:10.560Z,18.40
2018-11-23T13:11:44.169Z,17.93
2018-11-23T13:14:17.756Z,18.20
2018-11-23T13:16:51.390Z,19.07
2018-11-23T13:19:24.977Z,19.10
2018-11-23T13:21:58.610Z,19.60
2018-11-23T13:24:32.203Z,21.37
2018-11-23T13:27:10.411Z,20.23
2018-11-23T13:29:44.877Z,22.90
2018-11-23T13:32:18.516Z,21.47
2018-11-23T13:34:52.107Z,23.23
2018-11-23T13:37:25.724Z,22.87
2018-11-23T13:39:59.421Z,22.57
2018-11-23T13:42:33.071Z,24.27
2018-11-23T13:45:08.578Z,23.60
2018-11-23T13:47:42.467Z,24.03
2018-11-23T13:50:17.592Z,23.73
2018-11-23T13:52:52.282Z,24.13
2018-11-23T13:55:25.869Z,24.97
2018-11-23T13:57:59.484Z,25.93
2018-11-23T14:00:33.098Z,24.37
2018-11-23T14:03:06.702Z,25.73
2018-11-23T14:05:40.260Z,24.40
2018-11-23T14:08:13.887Z,26.37
2018-11-23T14:10:47.482Z,24.17
2018-11-23T14:13:21.060Z,25.47
2018-11-23T14:15:54.616Z,25.77
2018-11-23T14:18:28.223Z,26.03
2018-11-23T14:21:02.247Z,28.60
2018-11-23T14:23:35.898Z,25.10
2018-11-23T14:26:09.449Z,27.60
2018-11-23T14:28:43.074Z,27.23
2018-11-23T14:31:16.664Z,25.77
2018-11-23T14:33:50.300Z,26.90
2018-11-23T14:36:23.896Z,27.63
2018-11-23T14:38:57.511Z,30.63
2018-11-23T14:41:31.147Z,28.70
2018-11-23T14:44:06.947Z,29.23
2018-11-23T14:46:38.686Z,29.70
2018-11-23T14:49:12.296Z,28.40
2018-11-23T14:51:45.882Z,29.50
2018-11-23T14:54:19.495Z,29.77
2018-11-23T14:56:53.085Z,29.83
2018-11-23T14:59:26.711Z,29.23
2018-11-23T15:02:00.302Z,29.00
2018-11-23T15:04:33.984Z,29.50
2018-11-23T15:07:07.632Z,29.07
2018-11-23T15:09:41.227Z,28.90
2018-11-23T15:12:15.086Z,30.43
2018-11-23T15:14:48.691Z,27.83
2018-11-23T15:17:22.270Z,29.57
2018-11-23T15:19:56.145Z,28.93
2018-11-23T15:22:29.742Z,28.07
2018-11-23T15:25:03.610Z,29.53
2018-11-23T15:27:37.212Z,30.27
2018-11-23T15:30:19.426Z,30.97
2018-11-23T15:32:53.133Z,27.67
2018-11-23T15:35:27.669Z,28.80
2018-11-23T15:38:01.315Z,29.90
2018-11-23T15:40:34.980Z,29.87
2018-11-23T15:43:11.898Z,29.77
2018-11-23T15:45:45.545Z,31.73
2018-11-23T15:48:19.129Z,31.53
2018-11-23T15:50:53.063Z,29.80
2018-11-23T15:53:26.669Z,31.70
2018-11-23T15:56:00.740Z,30.87
2018-11-23T15:58:34.356Z,31.03
2018-11-23T16:01:08.083Z,31.67
2018-11-23T16:03:41.689Z,31.10
2018-11-23T16:06:15.539Z,31.80
2018-11-23T16:08:49.374Z,33.63
2018-11-23T16:11:23.004Z,32.03
2018-11-23T16:13:56.626Z,31.53
2018-11-23T16:16:30.246Z,31.77
2018-11-23T16:19:03.964Z,32.57
2018-11-23T16:21:37.586Z,30.87
2018-11-23T16:24:11.148Z,30.03
2018-11-23T16:26:44.733Z,32.53
2018-11-23T16:29:18.372Z,31.97
2018-11-23T16:31:52.008Z,33.50
2018-11-23T16:34:25.634Z,32.10
2018-11-23T16:36:59.227Z,33.13
2018-11-23T16:39:32.841Z,31.63
2018-11-23T16:42:06.433Z,34.20
2018-11-23T16:44:40.080Z,32.77
2018-11-23T16:47:13.679Z,31.50
2018-11-23T16:49:47.276Z,32.37
2018-11-23T16:52:21.197Z,32.17
2018-11-23T16:54:54.684Z,32.07
2018-11-23T16:57:28.647Z,33.10
2018-11-23T17:00:02.707Z,34.80
2018-11-23T17:02:36.293Z,33.73
2018-11-23T17:05:10.452Z,33.03
2018-11-23T17:07:44.054Z,33.53
2018-11-23T17:10:18.497Z,34.30
2018-11-23T17:12:52.212Z,33.80
2018-11-23T17:15:27.111Z,34.20
2018-11-23T17:18:00.738Z,34.00
2018-11-23T17:20:34.960Z,35.77
2018-11-23T17:23:09.868Z,33.80
2018-11-23T17:25:43.502Z,32.10
2018-11-23T17:28:17.074Z,34.40
2018-11-23T17:30:50.864Z,32.80
2018-11-23T17:33:24.487Z,33.40
2018-11-23T17:35:58.144Z,34.63
2018-11-23T17:38:37.536Z,34.97
2018-11-23T17:41:05.825Z,35.70
2018-11-23T17:43:39.426Z,33.63
2018-11-23T17:46:13.154Z,34.80
2018-11-23T17:48:47.096Z,35.70
2018-11-23T17:51:20.746Z,36.17
2018-11-23T17:53:54.339Z,34.87
2018-11-23T17:56:27.686Z,35.20
2018-11-23T17:59:01.291Z,34.17
2018-11-23T18:01:34.944Z,34.63
2018-11-23T18:04:08.565Z,34.67
2018-11-23T18:06:42.258Z,32.93
2018-11-23T18:09:15.833Z,35.67
2018-11-23T18:11:49.849Z,34.73
2018-11-23T18:14:23.431Z,34.77
2018-11-23T18:16:57.487Z,35.37
2018-11-23T18:19:31.082Z,35.00
2018-11-23T18:22:04.720Z,34.87
2018-11-23T18:24:38.320Z,35.23
2018-11-23T18:27:11.950Z,35.27
2018-11-23T18:29:45.601Z,37.07
2018-11-23T18:32:19.181Z,37.63
2018-11-23T18:34:52.763Z,34.93
2018-11-23T18:37:26.371Z,36.87
2018-11-23T18:40:00.021Z,33.30
2018-11-23T18:42:33.696Z,33.00
2018-11-23T18:45:11.727Z,34.83
2018-11-23T18:47:45.378Z,34.43
2018-11-23T18:50:19.069Z,35.63
2018-11-23T18:52:52.678Z,34.13
2018-11-23T18:55:26.287Z,33.67
2018-11-23T18:57:59.908Z,35.43
2018-11-23T19:00:33.527Z,35.40
2018-11-23T19:03:07.131Z,36.13
2018-11-23T19:05:40.879Z,35.23
2018-11-23T19:08:14.522Z,34.80
2018-11-23T19:10:48.140Z,35.00
2018-11-23T19:13:22.572Z,37.13
2018-11-23T19:15:56.168Z,35.00
2018-11-23T19:18:29.818Z,34.57
2018-11-23T19:21:03.444Z,35.00
2018-11-23T19:23:37.063Z,35.47
2018-11-23T19:26:10.701Z,35.93
2018-11-23T19:28:44.327Z,36.90
2018-11-23T19:31:18.050Z,35.33
2018-11-23T19:33:51.708Z,35.83
2018-11-23T19:36:25.366Z,37.37
2018-11-23T19:38:59.032Z,34.67
2018-11-23T19:41:32.926Z,34.83
2018-11-23T19:44:06.588Z,35.17
2018-11-23T19:46:40.280Z,35.27
2018-11-23T19:49:14.204Z,37.37
2018-11-23T19:51:47.793Z,35.90
2018-11-23T19:54:21.394Z,35.47
2018-11-23T19:56:55.075Z,35.10
2018-11-23T19:59:28.762Z,34.87
2018-11-23T20:02:02.445Z,35.27
2018-11-23T20:04:36.112Z,37.10
2018-11-23T20:07:09.959Z,34.63
2018-11-23T20:09:43.543Z,36.37
2018-11-23T20:12:17.188Z,35.80
2018-11-23T20:14:50.854Z,33.93
2018-11-23T20:17:24.415Z,34.70
2018-11-23T20:19:58.035Z,36.27
2018-11-23T20:22:31.928Z,37.03
2018-11-23T20:25:09.035Z,36.50
2018-11-23T20:27:43.712Z,36.53
2018-11-23T20:30:18.496Z,34.90
2018-11-23T20:32:52.083Z,36.60
2018-11-23T20:35:25.783Z,34.50
2018-11-23T20:37:59.384Z,34.47
2018-11-23T20:40:32.964Z,36.17
2018-11-23T20:43:06.817Z,35.17
2018-11-23T20:45:40.484Z,36.67
2018-11-23T20:48:14.071Z,35.10
2018-11-23T20:50:47.746Z,36.90
2018-11-23T20:53:21.392Z,35.83
2018-11-23T20:55:55.074Z,37.50
2018-11-23T20:58:28.711Z,34.83
2018-11-23T21:01:02.292Z,35.40
2018-11-23T21:03:35.867Z,35.30
2018-11-23T21:06:09.464Z,37.07
2018-11-23T21:08:43.058Z,35.90
2018-11-23T21:11:16.631Z,32.87
2018-11-23T21:13:51.263Z,36.53
2018-11-23T21:16:25.072Z,35.50
2018-11-23T21:18:58.669Z,35.87
2018-11-23T21:21:32.239Z,35.87
2018-11-23T21:24:06.657Z,36.83
2018-11-23T21:26:40.258Z,36.07
2018-11-23T21:29:13.857Z,36.37
2018-11-23T21:31:47.500Z,35.00
2018-11-23T21:34:21.176Z,34.87
2018-11-23T21:36:54.838Z,35.97
2018-11-23T21:39:28.436Z,37.70
2018-11-23T21:42:02.042Z,35.50
2018-11-23T21:44:35.647Z,36.70
2018-11-23T21:47:09.252Z,35.27
2018-11-23T21:49:42.870Z,34.43
2018-11-23T21:52:16.451Z,35.17
2018-11-23T21:54:50.051Z,35.03
2018-11-23T21:57:23.646Z,34.37
2018-11-23T21:59:57.249Z,35.07
2018-11-23T22:02:30.830Z,35.27
2018-11-23T22:05:04.923Z,36.57
2018-11-23T22:07:38.722Z,34.70
2018-11-23T22:10:16.727Z,36.63
2018-11-23T22:12:50.329Z,36.40
2018-11-23T22:15:25.419Z,35.20
2018-11-23T22:17:59.338Z,36.77
2018-11-23T22:20:32.964Z,35.30
2018-11-23T22:23:06.538Z,37.67
2018-11-23T22:25:40.163Z,34.67
2018-11-23T22:28:13.742Z,35.47
2018-11-23T22:30:47.357Z,36.13
2018-11-23T22:33:20.903Z,37.40
2018-11-23T22:35:54.542Z,36.30
2018-11-23T22:38:28.501Z,35.23
2018-11-23T22:41:02.145Z,35.63
2018-11-23T22:43:35.738Z,35.17
2018-11-23T22:46:09.704Z,35.07
2018-11-23T22:48:43.306Z,34.23
2018-11-23T22:51:16.921Z,33.20
2018-11-23T22:53:50.558Z,34.70
2018-11-23T22:56:24.138Z,34.13
2018-11-23T22:58:57.762Z,31.63
2018-11-23T23:01:31.376Z,36.37
2018-11-23T23:04:05.062Z,36.17
2018-11-23T23:06:38.673Z,33.30
2018-11-23T23:09:12.275Z,36.30
2018-11-23T23:11:45.864Z,35.00
2018-11-23T23:14:19.417Z,34.13
2018-11-23T23:16:53.007Z,33.23
2018-11-23T23:19:26.601Z,32.63
2018-11-23T23:22:00.203Z,34.87
2018-11-23T23:24:33.780Z,34.60
2018-11-23T23:27:07.383Z,35.90
2018-11-23T23:29:40.976Z,34.30
2018-11-23T23:32:14.588Z,34.53
2018-11-23T23:34:48.151Z,35.37
2018-11-23T23:37:21.738Z,35.73
2018-11-23T23:39:55.328Z,35.53
2018-11-23T23:42:28.986Z,35.87
2018-11-23T23:45:02.534Z,35.07
2018-11-23T23:47:36.119Z,33.70
2018-11-23T23:50:12.807Z,34.83
2018-11-23T23:52:46.433Z,34.90
2018-11-23T23:55:20.178Z,33.93
2018-11-23T23:57:53.824Z,34.57
